KBGE/BGE METAR and TAF weather

Enter ICAO airport designator
Station Type Date Time Source
KBGE METAR 2019/12/13 14:15 UTC NOAA

KBGE 131415Z AUTO 03007KT 5SM -DZ BR OVC005 08/08 A3006 RMK AO2 T00810076


Station Type Date Time Source
KBGE Decoded METAR 2019/12/13 14:15 UTC NOAA

Bainbridge, Decatur County Industrial Air Park Airport, GA, United States (KBGE) 30-58N 084-38W
Dec 13, 2019 - 09:15 AM EST / 2019.12.13 1415 UTC
Wind: from the NNE (030 degrees) at 8 MPH (7 KT):0
Visibility: 5 mile(s):0
Sky conditions: overcast
Weather: light drizzle; mist
Temperature: 46.6 F (8.1 C)
Dew Point: 45.7 F (7.6 C)
Relative Humidity: 96%
Pressure (altimeter): 30.06 in. Hg (1017 hPa)
ob: KBGE 131415Z AUTO 03007KT 5SM -DZ BR OVC005 08/08 A3006 RMK AO2 T00810076
cycle: 14

Station Type Date Time Source
KBGE TAF UTC NOAA

Error!

Example: see airport list